Time;durP1;ratioP1;P1;durP2;ratioP2;P2;SDS_P1;SDS_P2;PMS_P1;PMS_P2;Temp;Humidity;BMP_temperature;BMP_pressure;BME280_temperature;BME280_humidity;BME280_pressure;Samples;Min_cycle;Max_cycle;Signal;HPM_P1;HPM_P2
2022/06/07 00:00:18;;;;;;;;;;;;;;;23.11;36.27;101658.84;2092006;28;981;-53
2022/06/07 00:01:18;;;;;;;;;;;;;;;23.09;36.25;101653.50;2091969;28;843;-53
2022/06/07 00:02:24;;;;;;;;;;;;;;;23.09;36.28;101655.31;2092038;28;823;-53
2022/06/07 00:03:25;;;;;;;;;;;;;;;23.09;37.16;101656.19;2092025;28;878;-54
2022/06/07 00:04:25;;;;;;;;;;;;;;;23.08;36.92;101649.03;2098928;28;2646;-53
2022/06/07 00:05:25;;;;;;;;;;;;;;;23.09;36.68;101655.31;2100222;28;841;-53
2022/06/07 00:06:26;;;;;;;;;;;;;;;23.05;36.42;101651.81;2100228;28;799;-53
2022/06/07 00:07:26;;;;;;;;;;;;;;;23.06;37.13;101655.41;2099619;28;890;-54
2022/06/07 00:08:28;;;;;;;;;;;;;;;23.05;37.30;101668.03;2099703;28;1964;-53
2022/06/07 00:09:29;;;;;;;;;;;;;;;23.04;36.80;101659.97;2100232;28;760;-53
2022/06/07 00:10:29;;;;;;;;;;;;;;;23.05;36.57;101661.72;2100195;28;862;-53
2022/06/07 00:11:29;;;;;;;;;;;;;;;23.05;36.99;101654.53;2100345;28;906;-53
2022/06/07 00:12:30;;;;;;;;;;;;;;;23.05;36.56;101653.63;2100198;28;977;-54
2022/06/07 00:13:30;;;;;;;;;;;;;;;23.03;36.56;101660.88;2100182;28;783;-53
2022/06/07 00:14:32;;;;;;;;;;;;;;;23.02;36.58;101645.63;2100156;28;981;-53
2022/06/07 00:15:32;;;;;;;;;;;;;;;23.03;37.06;101650.09;2100172;28;898;-53
2022/06/07 00:16:32;;;;;;;;;;;;;;;23.02;36.46;101648.31;2100136;28;887;-53
2022/06/07 00:17:32;;;;;;;;;;;;;;;23.02;37.00;101643.81;2100155;28;768;-54
2022/06/07 00:18:33;;;;;;;;;;;;;;;23.02;36.95;101648.31;2100127;28;925;-53
2022/06/07 00:19:33;;;;;;;;;;;;;;;23.01;37.47;101646.53;2099057;28;2384;-52
2022/06/07 00:20:34;;;;;;;;;;;;;;;23.01;37.32;101643.84;2091800;28;2023;-54
2022/06/07 00:21:34;;;;;;;;;;;;;;;23.00;36.96;101645.66;2091828;28;878;-53
2022/06/07 00:22:35;;;;;;;;;;;;;;;22.99;37.51;101643.00;2091834;28;768;-53
2022/06/07 00:23:35;;;;;;;;;;;;;;;23.00;36.73;101639.38;2091813;28;970;-53
2022/06/07 00:24:36;;;;;;;;;;;;;;;22.99;37.03;101640.31;2091839;28;838;-53
2022/06/07 00:25:36;;;;;;;;;;;;;;;22.97;37.30;101640.38;2082911;28;887;-53
2022/06/07 00:26:38;;;;;;;;;;;;;;;22.98;36.69;101638.53;2083092;28;985;-54
2022/06/07 00:27:38;;;;;;;;;;;;;;;22.97;37.28;101650.28;2091676;28;1282;-53
2022/06/07 00:28:38;;;;;;;;;;;;;;;22.98;37.30;101646.63;2091743;28;1908;-53
2022/06/07 00:29:39;;;;;;;;;;;;;;;22.97;37.39;101651.16;2091771;28;764;-53
2022/06/07 00:30:39;;;;;;;;;;;;;;;22.95;36.86;101645.81;2091765;28;1035;-54
2022/06/07 00:31:40;;;;;;;;;;;;;;;22.95;37.45;101645.81;2091767;28;930;-54
2022/06/07 00:32:41;;;;;;;;;;;;;;;22.94;36.84;101648.56;2091743;28;809;-54
2022/06/07 00:33:42;;;;;;;;;;;;;;;22.94;37.31;101643.16;2091718;28;993;-53
2022/06/07 00:34:42;;;;;;;;;;;;;;;22.95;37.04;101647.63;2091713;28;989;-53
2022/06/07 00:35:42;;;;;;;;;;;;;;;22.94;37.68;101648.56;2098067;28;2351;-53
2022/06/07 00:36:43;;;;;;;;;;;;;;;22.94;36.90;101652.16;2100005;28;784;-54
2022/06/07 00:37:43;;;;;;;;;;;;;;;22.93;36.98;101650.41;2099951;28;1287;-54
2022/06/07 00:38:43;;;;;;;;;;;;;;;22.93;37.69;101653.09;2099992;28;799;-54
2022/06/07 00:39:43;;;;;;;;;;;;;;;22.92;37.18;101645.91;2099956;28;767;-53
2022/06/07 00:40:44;;;;;;;;;;;;;;;22.92;36.94;101643.22;2099995;28;771;-53
2022/06/07 00:41:44;;;;;;;;;;;;;;;22.92;36.75;101647.72;2099950;28;988;-53
2022/06/07 00:42:44;;;;;;;;;;;;;;;22.91;37.02;101641.44;2091143;28;1591;-54
2022/06/07 00:44:03;;;;;;;;;;;;;;;22.91;37.87;101648.66;2091126;28;756;-53
2022/06/07 00:45:03;;;;;;;;;;;;;;;22.90;36.91;101650.50;2099917;28;1024;-53
2022/06/07 00:46:09;;;;;;;;;;;;;;;22.91;37.34;101640.56;2099942;28;819;-53
2022/06/07 00:47:17;;;;;;;;;;;;;;;22.90;37.16;101655.88;2099959;28;835;-53
2022/06/07 00:48:17;;;;;;;;;;;;;;;22.89;37.06;101642.41;2099860;28;1960;-53
2022/06/07 00:49:18;;;;;;;;;;;;;;;22.89;37.91;101637.00;2099922;28;815;-53
2022/06/07 00:50:22;;;;;;;;;;;;;;;22.89;37.09;101646.00;2099898;28;767;-53
2022/06/07 00:51:22;;;;;;;;;;;;;;;22.88;37.85;101641.53;2099896;28;796;-54
2022/06/07 00:52:24;;;;;;;;;;;;;;;22.87;37.91;101642.47;2091051;28;2987;-53
2022/06/07 00:53:26;;;;;;;;;;;;;;;22.88;37.72;101633.44;2091618;28;886;-54
2022/06/07 00:54:31;;;;;;;;;;;;;;;22.88;37.81;101641.53;2082844;28;779;-53
2022/06/07 00:55:31;;;;;;;;;;;;;;;22.86;37.61;101637.09;2083267;28;819;-53
2022/06/07 00:56:31;;;;;;;;;;;;;;;22.88;37.43;101643.34;2082688;28;958;-53
2022/06/07 00:57:32;;;;;;;;;;;;;;;22.86;37.51;101634.41;2082761;28;1017;-54
2022/06/07 00:58:33;;;;;;;;;;;;;;;22.85;37.89;101636.22;2091554;28;1056;-54
2022/06/07 00:59:33;;;;;;;;;;;;;;;22.86;37.26;101632.59;2091606;28;863;-53
2022/06/07 01:00:33;;;;;;;;;;;;;;;22.85;37.47;101638.94;2091579;28;779;-53
2022/06/07 01:01:33;;;;;;;;;;;;;;;22.83;37.54;101627.28;2091572;28;1040;-53
2022/06/07 01:02:34;;;;;;;;;;;;;;;22.84;37.55;101637.16;2091551;28;750;-53
2022/06/07 01:03:34;;;;;;;;;;;;;;;22.85;38.00;101635.34;2091644;28;823;-53
2022/06/07 01:04:34;;;;;;;;;;;;;;;22.83;37.41;101627.28;2082586;28;1656;-53
2022/06/07 01:05:35;;;;;;;;;;;;;;;22.83;38.17;101630.00;2082720;28;1075;-53
2022/06/07 01:27:55;;;;;;;;;;;;;;;22.77;37.79;101612.13;2098695;28;1409;-55
2022/06/07 01:28:55;;;;;;;;;;;;;;;22.78;38.38;101619.31;2098641;28;894;-55
2022/06/07 01:29:56;;;;;;;;;;;;;;;22.77;37.88;101622.06;2098654;28;965;-55
2022/06/07 01:30:56;;;;;;;;;;;;;;;22.77;38.21;101613.97;2098648;28;831;-56
2022/06/07 01:31:57;;;;;;;;;;;;;;;22.77;37.73;101616.66;2098727;28;1005;-56
2022/06/07 01:32:57;;;;;;;;;;;;;;;22.76;38.12;101613.06;2098588;28;1036;-56
2022/06/07 01:33:57;;;;;;;;;;;;;;;22.76;38.37;101604.09;2098559;28;816;-56
2022/06/07 01:34:57;;;;;;;;;;;;;;;22.75;37.56;101603.19;2098601;28;918;-55
2022/06/07 01:36:01;;;;;;;;;;;;;;;22.76;38.15;101614.91;2098674;28;810;-56
2022/06/07 01:37:01;;;;;;;;;;;;;;;22.75;37.72;101616.69;2098329;28;913;-56
2022/06/07 01:38:01;;;;;;;;;;;;;;;22.76;37.72;101614.91;2098762;28;1061;-56
2022/06/07 01:41:55;;;;;;;;;;;;;;;22.75;38.08;101596.94;2090595;28;705;-56
2022/06/07 01:42:55;;;;;;;;;;;;;;;22.75;38.43;101608.59;2090504;28;823;-57
2022/06/07 01:43:55;;;;;;;;;;;;;;;22.75;37.70;101615.84;2090502;28;966;-56
2022/06/07 01:44:56;;;;;;;;;;;;;;;22.74;37.60;101598.72;2090434;28;1037;-56
2022/06/07 01:46:02;;;;;;;;;;;;;;;22.74;38.03;101600.56;2090468;28;890;-56
2022/06/07 01:47:02;;;;;;;;;;;;;;;22.73;38.55;101599.66;2090403;28;1918;-57
2022/06/07 01:48:03;;;;;;;;;;;;;;;22.73;37.84;101601.50;2090551;28;784;-56
2022/06/07 01:49:03;;;;;;;;;;;;;;;22.72;38.51;101606.00;2090436;28;965;-56
2022/06/07 01:50:05;;;;;;;;;;;;;;;22.73;37.99;101598.78;2090459;28;828;-56
2022/06/07 01:51:07;;;;;;;;;;;;;;;22.72;37.72;101589.78;2090453;28;819;-57
2022/06/07 01:52:08;;;;;;;;;;;;;;;22.72;38.36;101592.47;2090380;28;1005;-56
2022/06/07 01:53:09;;;;;;;;;;;;;;;22.73;38.00;101591.56;2090430;28;930;-56
2022/06/07 01:54:10;;;;;;;;;;;;;;;22.72;37.93;101592.47;2090442;28;815;-56
2022/06/07 01:55:10;;;;;;;;;;;;;;;22.72;37.82;101597.88;2095705;28;2879;-56
2022/06/07 01:56:11;;;;;;;;;;;;;;;22.73;37.89;101587.97;2098700;28;767;-56
2022/06/07 01:57:12;;;;;;;;;;;;;;;22.72;37.82;101589.78;2098598;28;1049;-56
2022/06/07 01:58:12;;;;;;;;;;;;;;;22.72;38.08;101592.47;2098647;28;978;-56
2022/06/07 01:59:12;;;;;;;;;;;;;;;22.72;38.63;101591.63;2096800;28;2737;-56
2022/06/07 02:00:13;;;;;;;;;;;;;;;22.72;38.58;101591.63;2090345;28;1020;-56
2022/06/07 02:01:13;;;;;;;;;;;;;;;22.71;38.21;101588.00;2090289;28;1014;-56
2022/06/07 02:02:13;;;;;;;;;;;;;;;22.72;38.31;101583.50;2090327;28;863;-56
2022/06/07 02:03:14;;;;;;;;;;;;;;;22.72;38.17;101583.50;2090333;28;835;-56
2022/06/07 02:04:14;;;;;;;;;;;;;;;22.72;38.31;101583.50;2090362;28;974;-56
2022/06/07 02:05:15;;;;;;;;;;;;;;;22.72;38.46;101583.50;2090336;28;1036;-56
2022/06/07 02:06:15;;;;;;;;;;;;;;;22.71;37.96;101587.16;2090311;28;849;-56
2022/06/07 02:07:15;;;;;;;;;;;;;;;22.71;37.96;101584.44;2090228;28;1902;-56
2022/06/07 02:08:15;;;;;;;;;;;;;;;22.72;38.16;101594.31;2090318;28;1088;-56
2022/06/07 02:09:17;;;;;;;;;;;;;;;22.71;37.95;101589.84;2090311;28;1005;-56
2022/06/07 02:10:17;;;;;;;;;;;;;;;22.71;38.68;101589.84;2090337;28;878;-56
2022/06/07 02:11:19;;;;;;;;;;;;;;;22.70;38.76;101588.06;2090259;28;796;-56
2022/06/07 02:12:19;;;;;;;;;;;;;;;22.69;37.95;101587.19;2090211;28;967;-56
2022/06/07 02:13:20;;;;;;;;;;;;;;;22.71;38.09;101587.16;2090249;28;1137;-56
2022/06/07 02:14:20;;;;;;;;;;;;;;;22.70;38.19;101582.69;2090270;28;887;-56
2022/06/07 02:15:20;;;;;;;;;;;;;;;22.70;38.25;101583.53;2090249;28;974;-56
2022/06/07 02:16:21;;;;;;;;;;;;;;;22.70;37.94;101588.06;2096157;28;3825;-56
2022/06/07 02:17:21;;;;;;;;;;;;;;;22.70;38.48;101585.38;2098471;28;1044;-56
2022/06/07 02:18:22;;;;;;;;;;;;;;;22.70;38.00;101585.38;2098493;28;988;-56
2022/06/07 02:19:22;;;;;;;;;;;;;;;22.69;38.13;101589.88;2098480;28;858;-56
2022/06/07 02:20:22;;;;;;;;;;;;;;;22.69;38.54;101589.88;2098479;28;775;-56
2022/06/07 02:21:22;;;;;;;;;;;;;;;22.69;38.86;101589.88;2098498;28;866;-56
2022/06/07 02:22:23;;;;;;;;;;;;;;;22.69;38.71;101589.00;2098430;28;1001;-56
2022/06/07 02:23:23;;;;;;;;;;;;;;;22.69;38.29;101586.31;2098442;28;1020;-56
2022/06/07 02:24:23;;;;;;;;;;;;;;;22.69;38.13;101583.59;2098417;28;977;-56
2022/06/07 02:25:24;;;;;;;;;;;;;;;22.69;38.03;101580.91;2098440;28;763;-56
2022/06/07 02:26:26;;;;;;;;;;;;;;;22.68;38.13;101590.81;2098350;28;1020;-56
2022/06/07 02:27:27;;;;;;;;;;;;;;;22.69;38.41;101586.31;2102796;28;1961;-56
2022/06/07 02:28:30;;;;;;;;;;;;;;;22.68;39.02;101587.25;2106784;28;787;-56
2022/06/07 02:29:42;;;;;;;;;;;;;;;22.68;38.19;101585.41;2106809;28;783;-56
2022/06/07 02:30:43;;;;;;;;;;;;;;;22.68;38.17;101577.31;2106759;28;1031;-56
2022/06/07 02:31:45;;;;;;;;;;;;;;;22.67;38.31;101575.53;2100854;28;3779;-56
2022/06/07 02:32:45;;;;;;;;;;;;;;;22.67;38.64;101578.25;2098206;28;1548;-56
2022/06/07 02:33:47;;;;;;;;;;;;;;;22.67;38.40;101572.84;2098297;28;961;-56
2022/06/07 02:34:51;;;;;;;;;;;;;;;22.67;38.74;101578.25;2098383;28;780;-56
2022/06/07 02:35:52;;;;;;;;;;;;;;;22.67;38.17;101575.53;2098291;28;889;-56
2022/06/07 02:36:55;;;;;;;;;;;;;;;22.68;38.84;101576.44;2098316;28;791;-56
2022/06/07 02:37:55;;;;;;;;;;;;;;;22.67;38.91;101575.53;2098169;28;1259;-56
2022/06/07 02:38:55;;;;;;;;;;;;;;;22.67;38.38;101583.63;2094707;28;977;-56
2022/06/07 02:39:56;;;;;;;;;;;;;;;22.67;38.78;101574.66;2092821;28;1166;-57
2022/06/07 02:40:56;;;;;;;;;;;;;;;22.65;38.40;101572.91;2092787;28;977;-56
2022/06/07 02:41:58;;;;;;;;;;;;;;;22.66;38.19;101576.50;2092813;28;961;-56
2022/06/07 02:42:58;;;;;;;;;;;;;;;22.66;38.84;101571.09;2092764;28;862;-56
2022/06/07 02:43:58;;;;;;;;;;;;;;;22.65;38.95;101570.19;2092775;28;874;-56
2022/06/07 02:44:58;;;;;;;;;;;;;;;22.65;38.85;101572.91;2092767;28;1051;-56
2022/06/07 02:45:59;;;;;;;;;;;;;;;22.66;38.81;101571.09;2092759;28;848;-56
2022/06/07 02:46:59;;;;;;;;;;;;;;;22.65;38.20;101567.50;2092679;28;1977;-57
2022/06/07 02:47:59;;;;;;;;;;;;;;;22.65;38.21;101567.50;2092634;28;3079;-57
2022/06/07 02:48:59;;;;;;;;;;;;;;;22.64;38.64;101568.44;2101074;28;982;-56
2022/06/07 02:50:00;;;;;;;;;;;;;;;22.65;38.25;101569.31;2101024;28;791;-56
2022/06/07 02:51:00;;;;;;;;;;;;;;;22.65;39.11;101564.78;2101018;28;917;-56
2022/06/07 02:52:00;;;;;;;;;;;;;;;22.64;38.77;101565.72;2101034;28;1025;-56
2022/06/07 02:53:00;;;;;;;;;;;;;;;22.64;38.34;101568.44;2092099;28;807;-56
2022/06/07 02:54:00;;;;;;;;;;;;;;;22.64;38.32;101557.63;2092158;28;854;-56
2022/06/07 02:55:00;;;;;;;;;;;;;;;22.65;38.61;101564.78;2100883;28;1052;-56
2022/06/07 02:56:01;;;;;;;;;;;;;;;22.64;38.97;101560.31;2100997;28;981;-57
2022/06/07 02:57:01;;;;;;;;;;;;;;;22.64;38.70;101557.63;2100973;28;869;-56
2022/06/07 02:58:01;;;;;;;;;;;;;;;22.64;39.08;101559.47;2100960;28;953;-56
2022/06/07 02:59:01;;;;;;;;;;;;;;;22.63;38.34;101558.56;2100973;28;981;-56
2022/06/07 03:00:02;;;;;;;;;;;;;;;22.64;38.36;101559.47;2100923;28;965;-56
2022/06/07 03:01:03;;;;;;;;;;;;;;;22.64;38.29;101556.75;2091921;28;892;-56
2022/06/07 03:02:03;;;;;;;;;;;;;;;22.63;38.84;101555.84;2092085;28;890;-56
2022/06/07 03:03:03;;;;;;;;;;;;;;;22.64;39.12;101562.16;2100760;28;954;-56
2022/06/07 03:04:03;;;;;;;;;;;;;;;22.63;38.86;101563.09;2100941;28;858;-56
2022/06/07 03:05:04;;;;;;;;;;;;;;;22.62;38.44;101554.09;2100936;28;917;-56
2022/06/07 03:06:04;;;;;;;;;;;;;;;22.63;38.57;101555.00;2100021;28;3718;-56
2022/06/07 03:07:04;;;;;;;;;;;;;;;22.62;39.30;101559.50;2100782;28;1891;-56
2022/06/07 03:08:04;;;;;;;;;;;;;;;22.63;38.41;101552.28;2100883;28;961;-56
2022/06/07 03:09:05;;;;;;;;;;;;;;;22.62;39.14;101554.09;2100901;28;811;-56
2022/06/07 03:10:06;;;;;;;;;;;;;;;22.62;38.86;101546.00;2100838;28;819;-56
2022/06/07 03:11:06;;;;;;;;;;;;;;;22.61;39.21;101540.66;2100861;28;878;-56
2022/06/07 03:12:07;;;;;;;;;;;;;;;22.62;39.34;101531.63;2100964;28;830;-56
2022/06/07 03:13:07;;;;;;;;;;;;;;;22.61;38.51;101528.00;2100859;28;788;-56
2022/06/07 03:14:07;;;;;;;;;;;;;;;22.62;38.78;101528.91;2100895;28;883;-56
2022/06/07 03:15:08;;;;;;;;;;;;;;;22.62;38.36;101537.03;2100825;28;961;-56
2022/06/07 03:16:08;;;;;;;;;;;;;;;22.62;38.57;101526.22;2100876;28;803;-56
2022/06/07 03:17:08;;;;;;;;;;;;;;;22.61;39.16;101525.31;2100852;28;976;-56
2022/06/07 03:18:09;;;;;;;;;;;;;;;22.61;38.84;101519.91;2100834;28;687;-56
2022/06/07 03:19:09;;;;;;;;;;;;;;;22.62;38.56;101518.97;2100795;28;851;-56
2022/06/07 03:20:10;;;;;;;;;;;;;;;22.61;38.42;101519.91;2091842;28;854;-56
2022/06/07 03:21:10;;;;;;;;;;;;;;;22.61;38.57;101522.63;2092011;28;1213;-56
2022/06/07 03:22:12;;;;;;;;;;;;;;;22.61;38.61;101525.31;2100106;28;2662;-56
2022/06/07 03:23:12;;;;;;;;;;;;;;;22.61;38.98;101522.63;2092506;28;799;-56
2022/06/07 03:24:13;;;;;;;;;;;;;;;22.61;38.65;101524.44;2092487;28;1024;-56
2022/06/07 03:25:13;;;;;;;;;;;;;;;22.60;38.96;101523.53;2092495;28;930;-56
2022/06/07 03:26:14;;;;;;;;;;;;;;;22.61;38.58;101521.75;2092490;28;783;-56
2022/06/07 03:27:14;;;;;;;;;;;;;;;22.61;39.38;101532.56;2092221;28;1913;-56
2022/06/07 03:28:14;;;;;;;;;;;;;;;22.61;38.91;101528.00;2092452;28;1029;-56
2022/06/07 03:29:14;;;;;;;;;;;;;;;22.60;38.62;101523.53;2092411;28;811;-56
2022/06/07 03:30:14;;;;;;;;;;;;;;;22.61;39.41;101522.63;2083534;28;1010;-56
2022/06/07 03:31:16;;;;;;;;;;;;;;;22.61;38.54;101519.91;2083522;28;997;-56
2022/06/07 03:32:16;;;;;;;;;;;;;;;22.60;39.30;101506.47;2092409;28;799;-56
2022/06/07 03:33:16;;;;;;;;;;;;;;;22.60;38.84;101518.16;2092436;28;886;-56
2022/06/07 03:34:16;;;;;;;;;;;;;;;22.60;39.37;101501.06;2092378;28;1044;-57
2022/06/07 03:35:17;;;;;;;;;;;;;;;22.59;38.67;101505.56;2092417;28;792;-56
2022/06/07 03:36:20;;;;;;;;;;;;;;;22.60;38.62;101512.75;2092399;28;760;-56
2022/06/07 03:37:20;;;;;;;;;;;;;;;22.61;38.91;101510.94;2092434;28;739;-56
2022/06/07 03:38:20;;;;;;;;;;;;;;;22.60;38.85;101512.75;2092409;28;764;-56
2022/06/07 03:39:20;;;;;;;;;;;;;;;22.60;38.63;101503.78;2092415;28;962;-57
2022/06/07 03:41:39;;;;;;;;;;;;;;;22.60;39.50;101504.66;2092443;28;673;-56
2022/06/07 03:42:41;;;;;;;;;;;;;;;22.60;39.51;101503.78;2092381;28;800;-56
2022/06/07 03:43:41;;;;;;;;;;;;;;;22.59;39.53;101500.19;2092410;28;1062;-56
2022/06/07 03:44:41;;;;;;;;;;;;;;;22.60;38.93;101501.94;2092341;28;852;-56
2022/06/07 03:45:41;;;;;;;;;;;;;;;22.60;38.79;101493.84;2092338;28;779;-56
2022/06/07 03:46:42;;;;;;;;;;;;;;;22.59;38.98;101500.19;2092313;28;969;-56
2022/06/07 03:47:44;;;;;;;;;;;;;;;22.60;38.81;101503.78;2092207;28;1894;-56
2022/06/07 03:48:45;;;;;;;;;;;;;;;22.60;39.48;101498.38;2092245;28;838;-56
2022/06/07 03:49:48;;;;;;;;;;;;;;;22.59;38.82;101502.88;2092260;28;993;-56
2022/06/07 03:50:48;;;;;;;;;;;;;;;22.58;39.57;101506.50;2091282;28;882;-56
2022/06/07 03:51:49;;;;;;;;;;;;;;;22.59;39.60;101492.06;2092223;28;795;-56
2022/06/07 03:52:49;;;;;;;;;;;;;;;22.59;38.91;101502.88;2092270;28;998;-56
2022/06/07 03:53:50;;;;;;;;;;;;;;;22.58;39.39;101498.41;2092286;28;938;-56
2022/06/07 03:54:50;;;;;;;;;;;;;;;22.59;39.35;101496.63;2092233;28;811;-56
2022/06/07 03:55:52;;;;;;;;;;;;;;;22.59;39.16;101493.91;2092258;28;866;-56
2022/06/07 03:56:52;;;;;;;;;;;;;;;22.58;39.38;101501.09;2092228;28;1033;-56
2022/06/07 03:57:52;;;;;;;;;;;;;;;22.58;38.82;101497.53;2091673;28;2619;-56
2022/06/07 03:58:52;;;;;;;;;;;;;;;22.58;39.34;101498.41;2092233;28;855;-56
2022/06/07 03:59:52;;;;;;;;;;;;;;;22.58;39.06;101495.72;2092193;28;842;-56
2022/06/07 04:00:56;;;;;;;;;;;;;;;22.58;39.69;101498.41;2092196;28;1044;-56
2022/06/07 04:01:56;;;;;;;;;;;;;;;22.76;39.13;101499.63;2092198;28;827;-56
2022/06/07 04:02:56;;;;;;;;;;;;;;;23.93;36.85;101499.25;2092201;28;891;-56
2022/06/07 04:04:04;;;;;;;;;;;;;;;24.65;35.01;101494.72;2092154;28;981;-56
2022/06/07 04:05:04;;;;;;;;;;;;;;;25.24;34.39;101505.88;2092206;28;764;-55
2022/06/07 04:06:05;;;;;;;;;;;;;;;25.69;33.20;101494.91;2092064;28;1195;-56
2022/06/07 04:08:25;;;;;;;;;;;;;;;26.40;31.38;101488.06;2092215;28;662;-56
2022/06/07 04:09:25;;;;;;;;;;;;;;;26.52;31.83;101486.56;2092181;28;803;-56
2022/06/07 04:10:25;;;;;;;;;;;;;;;26.79;30.55;101485.22;2092116;28;901;-56
2022/06/07 04:11:26;;;;;;;;;;;;;;;27.01;30.90;101483.28;2092110;28;1033;-55
2022/06/07 04:12:27;;;;;;;;;;;;;;;27.14;30.28;101486.25;2092108;28;865;-56
2022/06/07 04:13:28;;;;;;;;;;;;;;;27.42;29.90;101482.09;2092120;28;1044;-56
2022/06/07 04:14:28;;;;;;;;;;;;;;;27.64;29.96;101482.75;2095890;28;2661;-56
2022/06/07 04:15:29;;;;;;;;;;;;;;;27.82;29.61;101458.22;2100357;28;847;-56
2022/06/07 04:16:30;;;;;;;;;;;;;;;28.00;29.03;101463.59;2100385;28;802;-56
2022/06/07 04:17:30;;;;;;;;;;;;;;;28.17;28.81;101474.47;2100350;28;984;-56
2022/06/07 04:18:30;;;;;;;;;;;;;;;28.38;28.11;101466.03;2100333;28;771;-56
2022/06/07 04:19:33;;;;;;;;;;;;;;;28.38;28.04;101471.47;2100296;28;886;-56
2022/06/07 04:20:33;;;;;;;;;;;;;;;28.69;27.68;101473.31;2100264;28;866;-56
2022/06/07 04:21:33;;;;;;;;;;;;;;;28.81;27.39;101474.50;2100285;28;890;-56
2022/06/07 04:22:33;;;;;;;;;;;;;;;28.98;27.42;101480.78;2100284;28;969;-56
2022/06/07 04:23:34;;;;;;;;;;;;;;;29.32;26.55;101488.78;2100248;28;984;-56
2022/06/07 04:24:34;;;;;;;;;;;;;;;29.41;26.26;101486.41;2100266;28;795;-56
2022/06/07 04:25:35;;;;;;;;;;;;;;;29.46;26.37;101488.84;2100245;28;1020;-56
2022/06/07 04:26:35;;;;;;;;;;;;;;;29.72;26.17;101481.78;2100299;28;815;-55
2022/06/07 04:27:35;;;;;;;;;;;;;;;29.73;26.03;101478.06;2100064;28;1910;-55
2022/06/07 04:28:36;;;;;;;;;;;;;;;29.61;26.26;101478.81;2100217;28;854;-55
2022/06/07 04:29:36;;;;;;;;;;;;;;;29.78;26.19;101476.91;2099419;28;3293;-55
2022/06/07 04:30:36;;;;;;;;;;;;;;;29.90;26.19;101470.66;2100210;28;1004;-56
2022/06/07 04:31:36;;;;;;;;;;;;;;;30.08;25.64;101470.47;2100340;28;918;-55
2022/06/07 04:32:38;;;;;;;;;;;;;;;30.13;25.93;101462.84;2100237;28;815;-55
2022/06/07 04:33:39;;;;;;;;;;;;;;;30.16;25.91;101469.00;2100221;28;850;-55
2022/06/07 04:34:39;;;;;;;;;;;;;;;30.26;25.19;101466.56;2100225;28;756;-55
2022/06/07 04:35:40;;;;;;;;;;;;;;;30.42;25.02;101468.28;2100179;28;912;-56
2022/06/07 04:36:40;;;;;;;;;;;;;;;30.59;25.14;101465.34;2100167;28;788;-55
2022/06/07 04:37:41;;;;;;;;;;;;;;;30.65;25.19;101464.03;2100079;28;1176;-56
2022/06/07 04:38:41;;;;;;;;;;;;;;;30.91;24.82;101467.75;2100156;28;890;-56
2022/06/07 04:39:41;;;;;;;;;;;;;;;31.24;24.03;101465.56;2100145;28;988;-55
2022/06/07 04:40:42;;;;;;;;;;;;;;;31.24;24.08;101465.56;2100131;28;976;-56
2022/06/07 04:41:43;;;;;;;;;;;;;;;31.42;24.07;101468.00;2100137;28;981;-56
2022/06/07 04:42:43;;;;;;;;;;;;;;;31.29;24.19;101466.13;2100113;28;863;-56
2022/06/07 04:43:44;;;;;;;;;;;;;;;31.31;23.78;101460.53;2100121;28;862;-55
2022/06/07 04:44:45;;;;;;;;;;;;;;;31.43;24.13;101464.28;2100121;28;989;-56
2022/06/07 04:45:46;;;;;;;;;;;;;;;31.52;24.26;101469.06;2100155;28;918;-56
2022/06/07 04:46:46;;;;;;;;;;;;;;;31.58;23.95;101462.31;2099221;28;2819;-56
2022/06/07 04:47:46;;;;;;;;;;;;;;;31.55;23.60;101454.31;2100057;28;1901;-56
2022/06/07 04:48:47;;;;;;;;;;;;;;;31.64;23.36;101457.25;2100092;28;807;-56
2022/06/07 04:49:47;;;;;;;;;;;;;;;31.65;23.29;101458.16;2100091;28;994;-55
2022/06/07 04:50:48;;;;;;;;;;;;;;;31.75;23.28;101455.66;2100111;28;776;-55
2022/06/07 04:51:48;;;;;;;;;;;;;;;31.95;22.88;101456.94;2100067;28;851;-55
2022/06/07 04:52:48;;;;;;;;;;;;;;;31.93;23.03;101457.06;2100085;28;807;-56
2022/06/07 04:53:49;;;;;;;;;;;;;;;31.83;23.30;101455.97;2100056;28;1040;-56
2022/06/07 04:54:49;;;;;;;;;;;;;;;31.69;23.50;101461.53;2100000;28;989;-56
2022/06/07 04:55:49;;;;;;;;;;;;;;;31.86;23.07;101458.47;2100115;28;886;-56
2022/06/07 04:56:49;;;;;;;;;;;;;;;31.97;22.99;101460.44;2100066;28;899;-56
2022/06/07 04:57:49;;;;;;;;;;;;;;;31.90;22.92;101454.53;2100046;28;858;-56
2022/06/07 04:58:49;;;;;;;;;;;;;;;32.15;22.89;101457.34;2100074;28;1024;-56
2022/06/07 04:59:50;;;;;;;;;;;;;;;32.23;22.73;101450.28;2091159;28;874;-56
2022/06/07 05:00:50;;;;;;;;;;;;;;;32.20;22.77;101453.25;2091167;28;878;-55
2022/06/07 05:01:50;;;;;;;;;;;;;;;32.28;22.46;101451.81;2099706;28;1044;-56
2022/06/07 05:02:50;;;;;;;;;;;;;;;32.27;22.49;101452.81;2094422;28;2563;-55
2022/06/07 05:03:51;;;;;;;;;;;;;;;32.12;22.73;101446.59;2091784;28;794;-56
2022/06/07 05:04:51;;;;;;;;;;;;;;;32.21;22.62;101445.94;2091706;28;1032;-56
2022/06/07 05:05:52;;;;;;;;;;;;;;;32.30;22.27;101447.13;2091726;28;772;-56
2022/06/07 05:06:52;;;;;;;;;;;;;;;32.38;22.28;101436.47;2091700;28;777;-56
2022/06/07 05:07:52;;;;;;;;;;;;;;;32.32;22.29;101439.66;2091615;28;1940;-56
2022/06/07 05:08:57;;;;;;;;;;;;;;;32.45;22.30;101439.59;2091754;28;898;-56
2022/06/07 05:09:57;;;;;;;;;;;;;;;32.51;22.16;101437.31;2091721;28;874;-55
2022/06/07 05:10:59;;;;;;;;;;;;;;;32.49;22.39;101430.16;2091687;28;874;-56
2022/06/07 05:11:59;;;;;;;;;;;;;;;32.62;21.85;101428.25;2091683;28;796;-56
2022/06/07 05:13:00;;;;;;;;;;;;;;;32.61;22.03;101429.25;2091678;28;1013;-55
2022/06/07 05:14:04;;;;;;;;;;;;;;;32.61;21.77;101429.25;2091695;28;799;-55
2022/06/07 05:15:05;;;;;;;;;;;;;;;32.56;22.03;101419.63;2091655;28;833;-56
2022/06/07 05:16:05;;;;;;;;;;;;;;;32.70;21.82;101419.41;2091614;28;1222;-56
2022/06/07 05:17:05;;;;;;;;;;;;;;;32.79;21.69;101420.59;2091666;28;1044;-56
2022/06/07 05:18:07;;;;;;;;;;;;;;;32.76;21.71;101424.44;2091636;28;775;-55
2022/06/07 05:19:10;;;;;;;;;;;;;;;32.77;21.43;101419.84;2091002;28;2847;-56
2022/06/07 05:20:10;;;;;;;;;;;;;;;32.88;21.71;101419.03;2091678;28;791;-57
2022/06/07 05:21:11;;;;;;;;;;;;;;;32.95;21.55;101412.97;2091700;28;886;-56
2022/06/07 05:22:11;;;;;;;;;;;;;;;32.86;21.76;101413.69;2082725;28;958;-56
2022/06/07 05:23:11;;;;;;;;;;;;;;;32.92;21.64;101415.94;2082798;28;985;-56
2022/06/07 05:24:12;;;;;;;;;;;;;;;32.82;21.56;101410.25;2091516;28;797;-56
2022/06/07 05:25:12;;;;;;;;;;;;;;;32.87;21.63;101417.28;2091605;28;776;-56
2022/06/07 05:26:19;;;;;;;;;;;;;;;32.55;22.35;101405.03;2091592;28;1032;-56
2022/06/07 05:27:21;;;;;;;;;;;;;;;32.66;21.80;101404.22;2091334;28;1980;-56
2022/06/07 05:28:22;;;;;;;;;;;;;;;32.88;22.01;101410.81;2091690;28;1220;-56
2022/06/07 05:29:24;;;;;;;;;;;;;;;32.84;21.96;101407.44;2091596;28;1049;-56
2022/06/07 05:30:24;;;;;;;;;;;;;;;32.94;21.51;101405.72;2082696;28;845;-56
2022/06/07 05:31:25;;;;;;;;;;;;;;;32.95;21.47;101395.63;2082758;28;859;-56
2022/06/07 05:32:26;;;;;;;;;;;;;;;33.03;21.56;101403.22;2091549;28;1041;-56
2022/06/07 05:33:26;;;;;;;;;;;;;;;32.95;21.92;101399.25;2091616;28;827;-56
2022/06/07 05:34:26;;;;;;;;;;;;;;;32.83;21.50;101405.66;2091605;28;812;-56
2022/06/07 05:35:26;;;;;;;;;;;;;;;32.85;21.52;101403.69;2091024;28;3807;-56
2022/06/07 05:36:28;;;;;;;;;;;;;;;32.88;21.32;101408.94;2091590;28;1045;-57
2022/06/07 05:37:28;;;;;;;;;;;;;;;32.75;21.60;101408.13;2082688;28;808;-56
2022/06/07 05:38:28;;;;;;;;;;;;;;;32.94;21.43;101410.31;2082763;28;859;-56
2022/06/07 05:39:30;;;;;;;;;;;;;;;32.96;21.52;101411.09;2091578;28;903;-56
2022/06/07 05:40:30;;;;;;;;;;;;;;;32.79;21.79;101409.63;2091531;28;787;-57
2022/06/07 05:41:32;;;;;;;;;;;;;;;32.96;21.45;101405.59;2091555;28;1432;-57
2022/06/07 05:42:32;;;;;;;;;;;;;;;32.95;21.40;101412.97;2091510;28;807;-56
2022/06/07 05:43:32;;;;;;;;;;;;;;;33.00;21.67;101409.84;2091524;28;989;-57
2022/06/07 05:44:33;;;;;;;;;;;;;;;33.11;21.08;101400.75;2091562;28;963;-56
2022/06/07 05:45:33;;;;;;;;;;;;;;;32.96;21.54;101401.00;2091499;28;901;-56